Time;durP1;ratioP1;P1;durP2;ratioP2;P2;SDS_P1;SDS_P2;PMS_P1;PMS_P2;Temp;Humidity;BMP_temperature;BMP_pressure;BME280_temperature;BME280_humidity;BME280_pressure;Samples;Min_cycle;Max_cycle;Signal;HPM_P1;HPM_P2
2022/03/31 00:02:11;;;;;;;15.95;4.72;;;;;;;0.32;53.60;99718.48;1693481;82;98496;-63
2022/03/31 00:04:38;;;;;;;10.23;4.50;;;;;;;0.28;53.68;99720.75;1696207;82;26750;-62
2022/03/31 00:07:04;;;;;;;11.12;4.37;;;;;;;0.24;53.72;99721.70;1691030;82;26535;-62
2022/03/31 00:09:31;;;;;;;10.55;4.22;;;;;;;0.24;53.80;99729.16;1692807;82;98207;-62
2022/03/31 00:12:00;;;;;;;12.33;4.30;;;;;;;0.22;53.82;99724.36;1696847;82;28005;-62
2022/03/31 00:14:27;;;;;;;11.38;3.80;;;;;;;0.17;53.84;99727.52;1688572;82;98463;-62
2022/03/31 00:16:54;;;;;;;11.97;4.12;;;;;;;0.16;53.93;99725.77;1688578;82;26323;-61
2022/03/31 00:19:20;;;;;;;15.03;4.03;;;;;;;0.14;53.98;99722.30;1692440;82;98452;-61
2022/03/31 00:21:48;;;;;;;9.68;4.28;;;;;;;0.10;54.12;99719.28;1701689;82;25834;-62
2022/03/31 00:24:15;;;;;;;10.68;4.50;;;;;;;0.05;54.20;99725.08;1696215;82;28236;-63
2022/03/31 00:26:41;;;;;;;12.53;4.72;;;;;;;0.01;54.22;99723.38;1687159;82;98404;-62
2022/03/31 00:29:07;;;;;;;13.60;4.22;;;;;;;-0.01;54.32;99718.62;1693871;82;25792;-61
2022/03/31 00:31:34;;;;;;;10.10;3.92;;;;;;;0.00;54.32;99721.67;1695500;82;99004;-62
2022/03/31 00:34:00;;;;;;;8.28;4.12;;;;;;;-0.01;54.33;99720.80;1700434;82;25813;-62
2022/03/31 00:36:26;;;;;;;13.70;4.40;;;;;;;-0.02;54.38;99718.19;1700841;82;27406;-61
2022/03/31 00:41:38;;;;;;;15.68;4.87;;;;;;;-0.06;54.67;99720.00;1697978;82;26011;-61
2022/03/31 00:44:06;;;;;;;7.08;3.70;;;;;;;-0.13;54.63;99725.39;1699433;82;98548;-62
2022/03/31 00:46:33;;;;;;;7.37;3.70;;;;;;;-0.13;54.69;99726.70;1702409;82;25783;-62
2022/03/31 00:49:01;;;;;;;11.05;4.42;;;;;;;-0.12;54.72;99721.86;1698413;82;27448;-63
2022/03/31 00:51:31;;;;;;;14.70;4.20;;;;;;;-0.18;54.72;99719.31;1685430;82;98418;-61
2022/03/31 00:53:59;;;;;;;12.80;4.35;;;;;;;-0.23;54.84;99719.38;1697198;82;26357;-63
2022/03/31 00:56:25;;;;;;;11.03;4.83;;;;;;;-0.27;54.88;99716.37;1706090;82;98507;-62
2022/03/31 00:58:53;;;;;;;9.75;3.90;;;;;;;-0.27;54.98;99718.13;1689095;82;25776;-62
2022/03/31 01:01:19;;;;;;;11.28;4.25;;;;;;;-0.27;55.08;99714.19;1687849;82;98544;-62
2022/03/31 01:03:45;;;;;;;9.48;3.72;;;;;;;-0.27;55.06;99711.55;1695170;82;25755;-62
2022/03/31 01:06:11;;;;;;;8.93;3.62;;;;;;;-0.26;55.13;99711.97;1695658;82;30551;-62
2022/03/31 01:08:37;;;;;;;14.25;3.77;;;;;;;-0.31;55.13;99710.72;1684521;82;98394;-62
2022/03/31 01:11:03;;;;;;;9.18;3.75;;;;;;;-0.35;55.27;99708.58;1698913;82;26401;-62
2022/03/31 01:13:29;;;;;;;10.40;3.33;;;;;;;-0.40;55.39;99701.19;1687765;82;98519;-62
2022/03/31 01:15:55;;;;;;;8.95;3.17;;;;;;;-0.45;55.42;99701.70;1699834;82;33745;-62
2022/03/31 01:18:21;;;;;;;7.95;3.30;;;;;;;-0.52;55.58;99706.63;1694183;82;31014;-62
2022/03/31 01:20:47;;;;;;;8.43;3.40;;;;;;;-0.55;55.56;99690.88;1689775;82;98432;-61
2022/03/31 01:23:14;;;;;;;9.58;3.60;;;;;;;-0.53;55.70;99707.97;1691118;82;32975;-62
2022/03/31 01:25:40;;;;;;;12.80;3.98;;;;;;;-0.54;55.77;99705.78;1696671;82;98529;-61
2022/03/31 01:28:06;;;;;;;7.22;3.77;;;;;;;-0.56;55.87;99702.30;1695725;82;26590;-61
2022/03/31 01:30:32;;;;;;;8.60;3.08;;;;;;;-0.58;55.90;99700.12;1693623;82;31036;-61
2022/03/31 01:32:59;;;;;;;8.50;3.52;;;;;;;-0.60;55.84;99698.41;1693276;82;98276;-62
2022/03/31 01:35:25;;;;;;;10.65;3.92;;;;;;;-0.67;56.16;99701.56;1690241;82;26689;-62
2022/03/31 01:37:51;;;;;;;8.40;3.22;;;;;;;-0.70;56.11;99706.42;1690988;82;98974;-62
2022/03/31 01:40:17;;;;;;;7.67;3.45;;;;;;;-0.71;56.13;99702.05;1690701;82;26455;-62
2022/03/31 01:42:44;;;;;;;5.87;3.20;;;;;;;-0.70;56.22;99697.66;1689625;82;30420;-62
2022/03/31 01:45:14;;;;;;;9.05;4.30;;;;;;;-0.70;56.40;99701.16;1697751;82;98477;-62
2022/03/31 01:47:42;;;;;;;8.40;3.75;;;;;;;-0.72;56.36;99703.39;1691826;83;25715;-61
2022/03/31 01:50:09;;;;;;;6.97;3.05;;;;;;;-0.76;56.33;99706.50;1689501;82;98287;-62
2022/03/31 01:52:36;;;;;;;9.20;3.27;;;;;;;-0.76;56.47;99705.63;1679784;82;25857;-62
2022/03/31 01:55:04;;;;;;;13.80;3.72;;;;;;;-0.79;56.62;99703.91;1684007;82;26656;-64
2022/03/31 01:57:30;;;;;;;12.47;4.00;;;;;;;-0.83;56.65;99693.45;1681791;83;98707;-62
2022/03/31 01:59:55;;;;;;;10.68;4.10;;;;;;;-0.86;56.65;99704.88;1692676;83;25802;-62
2022/03/31 02:02:22;;;;;;;7.12;3.60;;;;;;;-0.89;56.74;99706.67;1686670;83;98633;-62
2022/03/31 02:04:48;;;;;;;6.28;3.65;;;;;;;-0.88;56.78;99705.34;1689901;82;25771;-61
2022/03/31 02:07:14;;;;;;;8.73;3.95;;;;;;;-0.90;56.83;99715.01;1683859;82;98433;-62
2022/03/31 02:09:41;;;;;;;10.80;4.12;;;;;;;-0.87;56.84;99704.89;1690175;83;34902;-62
2022/03/31 02:12:08;;;;;;;10.13;4.00;;;;;;;-0.87;56.89;99714.10;1694549;83;25884;-61
2022/03/31 02:14:37;;;;;;;14.83;5.28;;;;;;;-0.87;56.94;99711.47;1686913;82;98646;-62
2022/03/31 02:17:09;;;;;;;8.18;3.52;;;;;;;-0.88;56.89;99709.73;1683998;83;27178;-61
2022/03/31 02:19:36;;;;;;;11.68;4.08;;;;;;;-0.90;56.90;99711.51;1682344;83;98513;-63
2022/03/31 02:22:04;;;;;;;9.50;3.90;;;;;;;-0.94;56.94;99711.12;1683197;83;26184;-61
2022/03/31 02:24:30;;;;;;;8.00;3.25;;;;;;;-0.93;57.02;99707.59;1686390;82;25783;-62
2022/03/31 02:26:58;;;;;;;8.48;3.85;;;;;;;-0.93;57.03;99707.16;1683912;83;98420;-63
2022/03/31 02:29:24;;;;;;;11.03;3.83;;;;;;;-0.90;57.07;99710.19;1691253;83;25748;-62
2022/03/31 02:31:50;;;;;;;9.40;4.17;;;;;;;-0.94;57.09;99712.44;1680259;83;98834;-62
2022/03/31 02:34:17;;;;;;;9.40;4.05;;;;;;;-0.99;57.10;99721.25;1693525;83;34875;-62
2022/03/31 02:36:44;;;;;;;7.72;4.10;;;;;;;-0.99;57.18;99708.09;1677627;83;25859;-62
2022/03/31 02:39:12;;;;;;;7.72;3.47;;;;;;;-1.01;57.24;99709.88;1687185;82;98448;-62
2022/03/31 02:41:40;;;;;;;15.03;4.30;;;;;;;-1.04;57.34;99711.22;1689116;82;25843;-62
2022/03/31 02:44:07;;;;;;;10.82;3.85;;;;;;;-1.07;57.29;99712.58;1688515;82;98637;-62
2022/03/31 02:46:33;;;;;;;10.25;4.03;;;;;;;-1.07;57.31;99709.08;1693814;82;25995;-63
2022/03/31 02:48:59;;;;;;;12.10;4.40;;;;;;;-1.08;57.31;99710.83;1701592;82;25789;-63
2022/03/31 02:51:26;;;;;;;10.30;4.10;;;;;;;-1.07;57.35;99715.65;1682301;82;98358;-63
2022/03/31 02:56:39;;;;;;;7.62;3.72;;;;;;;-1.03;57.30;99724.80;1699856;82;98366;-61
2022/03/31 02:59:07;;;;;;;8.98;3.98;;;;;;;-1.01;57.31;99718.20;1695976;82;25811;-63
2022/03/31 03:01:33;;;;;;;15.05;4.42;;;;;;;-1.04;57.25;99719.11;1693626;82;98537;-63
2022/03/31 03:04:01;;;;;;;10.03;3.98;;;;;;;-1.09;57.25;99718.73;1695514;82;29409;-64
2022/03/31 03:06:27;;;;;;;7.42;3.62;;;;;;;-1.11;57.32;99726.64;1694971;82;25721;-63
2022/03/31 03:08:57;;;;;;;8.78;4.17;;;;;;;-1.12;57.30;99719.64;1686578;82;98651;-64
2022/03/31 03:11:25;;;;;;;9.60;4.22;;;;;;;-1.10;57.34;99721.81;1692453;82;27859;-61
2022/03/31 03:13:51;;;;;;;8.65;3.65;;;;;;;-1.14;57.31;99715.29;1685525;82;98460;-61
2022/03/31 03:16:17;;;;;;;11.85;5.12;;;;;;;-1.14;57.42;99720.55;1700317;82;27456;-63
2022/03/31 03:18:43;;;;;;;10.68;4.33;;;;;;;-1.17;57.33;99714.01;1688135;82;26623;-62
2022/03/31 03:21:09;;;;;;;8.25;4.62;;;;;;;-1.17;57.39;99724.08;1692778;82;98639;-62
2022/03/31 03:23:38;;;;;;;9.20;3.85;;;;;;;-1.16;57.33;99721.88;1694371;82;34874;-61
2022/03/31 03:26:05;;;;;;;8.08;4.17;;;;;;;-1.18;57.27;99720.16;1695828;82;98303;-62
2022/03/31 03:28:36;;;;;;;12.73;3.75;;;;;;;-1.20;57.34;99724.11;1694029;82;29535;-63
2022/03/31 03:31:00;;;;;;;8.10;3.47;;;;;;;-1.19;57.29;99726.30;1688860;82;25716;-63
2022/03/31 03:33:26;;;;;;;10.43;4.72;;;;;;;-1.21;57.30;99726.31;1686358;82;98866;-63
2022/03/31 03:35:52;;;;;;;7.35;4.17;;;;;;;-1.23;57.28;99723.27;1693332;82;34887;-62
2022/03/31 03:38:18;;;;;;;10.05;3.47;;;;;;;-1.23;57.30;99727.22;1702139;82;98305;-63
2022/03/31 03:40:44;;;;;;;7.55;3.42;;;;;;;-1.22;57.29;99720.63;1699428;82;27470;-63
2022/03/31 03:43:10;;;;;;;9.10;3.95;;;;;;;-1.21;57.27;99726.31;1695546;82;98433;-67
2022/03/31 03:45:39;;;;;;;8.63;3.35;;;;;;;-1.21;57.24;99724.13;1693127;82;30533;-63
2022/03/31 03:48:11;;;;;;;9.03;4.12;;;;;;;-1.21;57.21;99732.02;1682858;82;25771;-63
2022/03/31 03:50:38;;;;;;;10.75;4.42;;;;;;;-1.20;57.27;99733.31;1684521;82;98350;-63
2022/03/31 03:53:07;;;;;;;6.87;3.65;;;;;;;-1.21;57.18;99730.26;1693497;82;27312;-63
2022/03/31 03:55:35;;;;;;;9.03;3.77;;;;;;;-1.20;57.20;99729.38;1694423;82;98514;-61
2022/03/31 03:58:02;;;;;;;6.72;3.98;;;;;;;-1.21;57.21;99726.31;1694029;82;25802;-61
2022/03/31 04:00:30;;;;;;;7.55;3.27;;;;;;;-1.24;57.18;99726.34;1693818;82;26490;-62
2022/03/31 04:02:56;;;;;;;6.17;3.80;;;;;;;-1.23;57.21;99724.14;1692136;82;98455;-62
2022/03/31 04:05:22;;;;;;;6.87;3.20;;;;;;;-1.20;57.20;99729.38;1695938;82;28474;-62
2022/03/31 04:07:48;;;;;;;8.63;3.40;;;;;;;-1.19;57.14;99724.54;1696465;82;97723;-62
2022/03/31 04:10:14;;;;;;;8.85;3.95;;;;;;;-1.19;57.15;99728.93;1695086;82;30455;-63
2022/03/31 04:12:40;;;;;;;9.63;3.70;;;;;;;-1.23;57.08;99728.09;1691904;82;36166;-63
2022/03/31 04:15:08;;;;;;;10.48;3.83;;;;;;;-1.24;57.17;99723.72;1697147;82;98338;-63
2022/03/31 04:17:35;;;;;;;9.85;3.72;;;;;;;-1.29;57.13;99730.78;1691236;82;27389;-63
2022/03/31 04:20:03;;;;;;;12.93;4.35;;;;;;;-1.27;57.11;99736.02;1696377;82;98507;-63
2022/03/31 04:22:33;;;;;;;4.95;3.30;;;;;;;-1.29;57.13;99741.73;1700315;82;25798;-61
2022/03/31 04:24:57;;;;;;;10.48;4.00;;;;;;;-1.29;57.09;99743.05;1693044;82;26420;-61
2022/03/31 04:27:23;;;;;;;10.80;4.05;;;;;;;-1.31;57.10;99736.05;1695291;82;98464;-62
2022/03/31 04:29:49;;;;;;;12.20;4.55;;;;;;;-1.33;57.05;99743.53;1684852;82;28428;-62
2022/03/31 04:32:15;;;;;;;26.70;4.28;;;;;;;-1.36;57.07;99737.86;1696841;82;98626;-62
2022/03/31 04:34:41;;;;;;;8.93;3.50;;;;;;;-1.38;57.06;99745.33;1693469;82;25866;-62
2022/03/31 04:37:07;;;;;;;8.70;3.25;;;;;;;-1.40;57.07;99742.72;1688370;82;98575;-63
2022/03/31 04:39:33;;;;;;;6.62;3.35;;;;;;;-1.47;57.12;99743.66;1697064;82;32929;-62
2022/03/31 04:41:59;;;;;;;6.72;2.95;;;;;;;-1.51;57.14;99741.94;1701852;82;27480;-61
2022/03/31 04:44:25;;;;;;;11.80;3.87;;;;;;;-1.59;57.15;99729.31;1699500;82;98365;-62
2022/03/31 04:46:51;;;;;;;9.25;3.75;;;;;;;-1.55;57.14;99738.04;1691079;82;25826;-62
2022/03/31 04:49:17;;;;;;;12.18;3.62;;;;;;;-1.53;57.17;99744.16;1692933;82;98715;-62
2022/03/31 04:51:42;;;;;;;8.03;3.10;;;;;;;-1.57;57.14;99734.11;1695916;82;32469;-62
2022/03/31 04:54:08;;;;;;;12.37;3.40;;;;;;;-1.56;57.16;99732.36;1702100;82;28440;-62
2022/03/31 04:56:34;;;;;;;7.87;4.28;;;;;;;-1.59;57.16;99742.89;1694969;82;98504;-62
2022/03/31 04:59:00;;;;;;;11.30;4.87;;;;;;;-1.57;57.10;99743.75;1689831;82;30939;-62
2022/03/31 05:01:26;;;;;;;9.23;3.92;;;;;;;-1.57;57.10;99743.75;1696669;82;98702;-62
2022/03/31 05:03:55;;;;;;;9.85;4.08;;;;;;;-1.56;57.17;99744.19;1681356;83;32541;-62
2022/03/31 05:06:21;;;;;;;8.25;3.92;;;;;;;-1.54;57.18;99747.67;1699618;82;27486;-63
2022/03/31 05:08:48;;;;;;;6.60;3.95;;;;;;;-1.54;57.12;99748.98;1688883;82;98350;-61
2022/03/31 05:11:13;;;;;;;13.22;3.75;;;;;;;-1.58;57.14;99753.39;1692333;82;25333;-62
2022/03/31 05:13:39;;;;;;;13.15;4.60;;;;;;;-1.60;57.10;99751.22;1691508;82;98788;-62
2022/03/31 05:16:07;;;;;;;7.35;3.65;;;;;;;-1.64;57.19;99749.50;1700001;82;32543;-62
2022/03/31 05:18:33;;;;;;;12.05;4.75;;;;;;;-1.62;57.21;99756.93;1688389;82;27478;-63
2022/03/31 05:20:59;;;;;;;9.03;3.55;;;;;;;-1.62;57.22;99755.62;1695022;82;98688;-62
2022/03/31 05:23:25;;;;;;;7.67;3.20;;;;;;;-1.60;57.21;99758.23;1693086;82;25857;-62
2022/03/31 05:25:51;;;;;;;12.07;3.33;;;;;;;-1.59;57.24;99758.66;1692789;82;98574;-64
2022/03/31 05:28:17;;;;;;;8.55;3.15;;;;;;;-1.53;57.23;99760.80;1698562;82;25862;-62
2022/03/31 05:30:43;;;;;;;14.98;3.77;;;;;;;-1.47;57.22;99766.44;1700929;82;28362;-62
2022/03/31 05:33:11;;;;;;;5.28;2.85;;;;;;;-1.46;57.22;99761.17;1699725;82;98730;-62
2022/03/31 05:35:37;;;;;;;9.78;3.40;;;;;;;-1.49;57.14;99763.83;1697291;82;25803;-62
2022/03/31 05:38:04;;;;;;;7.97;3.55;;;;;;;-1.51;57.21;99764.72;1693158;82;98329;-62
2022/03/31 05:40:30;;;;;;;8.20;3.60;;;;;;;-1.49;57.16;99766.45;1693009;82;25798;-62
2022/03/31 05:42:56;;;;;;;7.53;3.98;;;;;;;-1.47;57.20;99765.13;1697641;82;27540;-62
2022/03/31 05:45:25;;;;;;;12.23;4.28;;;;;;;-1.43;57.22;99759.83;1691979;82;98042;-62
2022/03/31 05:47:50;;;;;;;9.18;3.47;;;;;;;-1.41;57.18;99762.00;1687887;82;25846;-62
2022/03/31 05:50:16;;;;;;;8.90;3.58;;;;;;;-1.38;57.19;99765.91;1694340;82;98380;-65
2022/03/31 05:52:43;;;;;;;9.20;3.90;;;;;;;-1.34;57.18;99760.19;1694865;82;32457;-62
2022/03/31 05:55:14;;;;;;;8.10;3.83;;;;;;;-1.31;57.14;99770.23;1705746;82;98686;-62
2022/03/31 05:57:41;;;;;;;9.93;4.20;;;;;;;-1.30;57.11;99773.73;1707192;82;26262;-64
2022/03/31 06:00:13;;;;;;;14.43;4.17;;;;;;;-1.27;57.11;99765.81;1708188;82;25736;-64
2022/03/31 06:02:40;;;;;;;15.00;6.70;;;;;;;-1.23;57.11;99774.09;1700594;82;97629;-64
2022/03/31 06:05:07;;;;;;;12.55;5.28;;;;;;;-1.18;57.09;99768.35;1698183;82;25780;-62
2022/03/31 06:07:33;;;;;;;12.00;5.12;;;;;;;-1.16;57.08;99770.97;1691391;82;98792;-63
2022/03/31 06:10:00;;;;;;;11.65;4.03;;;;;;;-1.12;57.09;99772.23;1686931;82;25898;-61
2022/03/31 06:12:26;;;;;;;7.83;3.60;;;;;;;-1.07;57.04;99780.95;1700658;82;25722;-62
2022/03/31 06:14:52;;;;;;;9.78;4.12;;;;;;;-1.05;56.95;99779.17;1692546;82;98495;-62
2022/03/31 06:17:18;;;;;;;21.87;4.67;;;;;;;-1.02;57.01;99778.27;1701318;82;32628;-63
2022/03/31 06:19:45;;;;;;;12.30;4.40;;;;;;;-0.96;56.98;99772.95;1692434;82;98646;-65
2022/03/31 06:22:10;;;;;;;16.55;3.75;;;;;;;-0.94;56.92;99780.82;1700059;82;25805;-64
2022/03/31 06:24:36;;;;;;;12.23;3.33;;;;;;;-0.90;56.85;99786.48;1703015;82;30464;-64
2022/03/31 06:27:06;;;;;;;14.68;4.03;;;;;;;-0.90;56.86;99789.11;1704042;82;98474;-64
2022/03/31 06:29:33;;;;;;;16.67;4.85;;;;;;;-0.86;56.82;99792.13;1692636;82;25742;-63
2022/03/31 06:31:58;;;;;;;12.05;4.58;;;;;;;-0.83;56.87;99783.77;1699310;82;98642;-63
2022/03/31 06:34:25;;;;;;;16.65;4.65;;;;;;;-0.79;56.79;99780.65;1692258;82;33218;-63
2022/03/31 06:36:51;;;;;;;16.17;4.45;;;;;;;-0.75;56.80;99778.41;1699813;82;25883;-62
2022/03/31 06:39:17;;;;;;;7.20;3.55;;;;;;;-0.70;56.75;99776.59;1695769;82;98662;-63
2022/03/31 06:41:43;;;;;;;13.55;4.37;;;;;;;-0.68;56.70;99770.88;1695041;82;25731;-63
2022/03/31 06:44:13;;;;;;;7.05;3.55;;;;;;;-0.74;56.60;99769.19;1697389;82;98539;-65
2022/03/31 06:46:38;;;;;;;14.85;4.50;;;;;;;-0.72;56.64;99773.11;1689756;82;25848;-62
2022/03/31 06:49:03;;;;;;;15.18;4.17;;;;;;;-0.66;56.69;99768.65;1685808;82;25765;-62
2022/03/31 06:51:29;;;;;;;9.93;3.77;;;;;;;-0.60;56.62;99772.97;1683829;82;98350;-62
2022/03/31 06:53:57;;;;;;;13.40;4.35;;;;;;;-0.56;56.58;99765.91;1694584;82;32535;-62
2022/03/31 06:56:27;;;;;;;13.35;4.42;;;;;;;-0.51;56.55;99766.72;1691822;82;98628;-62
2022/03/31 06:58:52;;;;;;;16.20;3.87;;;;;;;-0.46;56.54;99768.85;1694777;82;25730;-63
2022/03/31 07:01:18;;;;;;;11.43;3.80;;;;;;;-0.42;56.43;99765.28;1699649;82;98708;-63
2022/03/31 07:03:44;;;;;;;9.93;3.92;;;;;;;-0.36;56.47;99765.20;1685419;82;34968;-63
2022/03/31 07:06:09;;;;;;;16.60;4.75;;;;;;;-0.32;56.36;99765.59;1685949;82;33012;-62
2022/03/31 07:08:36;;;;;;;10.70;4.15;;;;;;;-0.31;56.36;99753.30;1692236;82;98551;-64
2022/03/31 07:11:03;;;;;;;7.65;3.65;;;;;;;-0.21;56.39;99762.81;1690764;82;33637;-65
2022/03/31 07:13:30;;;;;;;11.18;3.60;;;;;;;-0.14;56.27;99763.15;1692494;82;97657;-62
2022/03/31 07:15:57;;;;;;;12.33;3.65;;;;;;;-0.15;56.17;99769.31;1692127;82;26334;-62
2022/03/31 07:18:23;;;;;;;10.35;4.15;;;;;;;-0.12;56.16;99762.68;1686794;82;26502;-62
2022/03/31 07:20:50;;;;;;;12.70;4.40;;;;;;;-0.10;56.08;99766.16;1691854;82;98641;-62
2022/03/31 07:23:18;;;;;;;7.12;3.62;;;;;;;-0.05;56.09;99770.47;1704484;82;25890;-63
2022/03/31 07:25:45;;;;;;;10.30;3.92;;;;;;;0.01;56.03;99769.48;1688950;82;98443;-63
2022/03/31 07:28:11;;;;;;;10.03;3.52;;;;;;;0.10;56.04;99780.33;1696370;82;26315;-63
2022/03/31 07:30:37;;;;;;;12.43;4.20;;;;;;;0.16;55.95;99774.52;1691116;82;26040;-63
2022/03/31 07:33:04;;;;;;;11.20;4.60;;;;;;;0.25;55.96;99782.28;1680998;82;98335;-63
2022/03/31 07:35:33;;;;;;;9.83;4.05;;;;;;;0.33;55.88;99783.04;1685155;82;27199;-64
2022/03/31 07:38:04;;;;;;;10.58;4.12;;;;;;;0.44;55.88;99777.59;1693401;82;97271;-62
2022/03/31 07:40:31;;;;;;;10.03;3.02;;;;;;;0.52;55.84;99777.47;1693891;82;26538;-63
2022/03/31 07:42:57;;;;;;;18.95;4.37;;;;;;;0.58;55.70;99766.38;1696441;82;26210;-65
2022/03/31 07:45:25;;;;;;;9.68;4.08;;;;;;;0.62;55.64;99767.19;1696505;82;97417;-65
2022/03/31 07:47:51;;;;;;;7.25;3.52;;;;;;;0.67;55.66;99777.21;1675613;83;26607;-64
2022/03/31 07:50:19;;;;;;;7.75;3.70;;;;;;;0.78;55.64;99787.13;1684769;83;97383;-64
2022/03/31 07:52:45;;;;;;;18.37;3.95;;;;;;;0.91;55.65;99777.23;1678774;83;26277;-63
2022/03/31 07:55:14;;;;;;;16.87;4.70;;;;;;;1.01;55.60;99782.76;1683070;83;98536;-64
2022/03/31 07:57:40;;;;;;;6.28;3.22;;;;;;;1.14;55.52;99783.41;1687401;83;29559;-64
2022/03/31 08:00:11;;;;;;;16.32;4.53;;;;;;;1.24;55.49;99786.28;1680786;83;25787;-62
2022/03/31 08:02:41;;;;;;;9.03;4.28;;;;;;;1.36;55.48;99788.69;1685793;83;98679;-63
2022/03/31 08:05:09;;;;;;;21.62;3.77;;;;;;;1.46;55.34;99782.33;1688056;83;26434;-64
2022/03/31 08:07:36;;;;;;;18.35;3.92;;;;;;;1.52;55.30;99783.97;1684442;83;98517;-63
2022/03/31 08:10:08;;;;;;;12.95;4.35;;;;;;;1.62;55.25;99773.19;1687483;83;29470;-64
2022/03/31 08:12:35;;;;;;;11.10;3.92;;;;;;;1.72;55.21;99767.70;1680390;83;26588;-63
2022/03/31 08:15:03;;;;;;;17.37;4.33;;;;;;;1.82;55.13;99766.61;1679255;83;98394;-63
2022/03/31 08:17:30;;;;;;;8.70;4.08;;;;;;;1.92;55.11;99755.80;1684319;83;26851;-64
2022/03/31 08:19:56;;;;;;;10.75;3.92;;;;;;;2.08;55.05;99768.66;1681757;83;97340;-64
2022/03/31 08:22:23;;;;;;;11.40;3.72;;;;;;;2.22;55.03;99768.77;1679283;83;27423;-64
2022/03/31 08:24:50;;;;;;;22.00;4.67;;;;;;;2.37;54.95;99769.30;1676253;83;25846;-62
2022/03/31 08:27:16;;;;;;;12.73;4.05;;;;;;;2.46;54.80;99773.05;1685968;83;97392;-66
2022/03/31 08:29:42;;;;;;;22.80;3.87;;;;;;;2.56;54.79;99766.63;1678442;83;26719;-67
2022/03/31 08:32:09;;;;;;;16.90;4.58;;;;;;;2.66;54.70;99770.75;1687107;83;98324;-69
2022/03/31 08:34:36;;;;;;;8.15;4.72;;;;;;;2.79;54.71;99768.20;1688818;83;28070;-64
2022/03/31 08:37:03;;;;;;;11.63;4.30;;;;;;;2.95;54.69;99768.67;1680909;83;27122;-63
2022/03/31 08:39:28;;;;;;;12.95;4.58;;;;;;;3.09;54.62;99765.66;1687352;83;97396;-65
2022/03/31 08:41:56;;;;;;;13.83;4.22;;;;;;;3.18;54.54;99764.95;1687272;83;25797;-66
2022/03/31 08:44:23;;;;;;;13.28;4.37;;;;;;;3.29;54.45;99770.41;1683105;83;98398;-64
2022/03/31 08:46:50;;;;;;;8.03;4.03;;;;;;;3.35;54.40;99771.11;1685754;82;29510;-63
2022/03/31 08:49:16;;;;;;;7.28;3.87;;;;;;;3.43;54.23;99771.77;1702598;82;98486;-64
2022/03/31 08:51:46;;;;;;;8.08;4.08;;;;;;;3.45;54.13;99767.75;1701226;82;30387;-64
2022/03/31 08:54:12;;;;;;;14.53;4.47;;;;;;;3.50;54.04;99764.05;1710051;82;25837;-64
2022/03/31 08:56:39;;;;;;;9.33;4.08;;;;;;;3.58;54.08;99758.08;1695956;82;98341;-63
2022/03/31 08:59:07;;;;;;;12.82;4.72;;;;;;;3.75;54.08;99756.25;1697274;82;26311;-62
2022/03/31 09:01:34;;;;;;;7.50;4.50;;;;;;;3.89;53.98;99756.71;1696489;82;98455;-63
2022/03/31 09:04:00;;;;;;;16.45;4.28;;;;;;;4.05;53.96;99760.22;1689410;82;26417;-63
2022/03/31 09:06:31;;;;;;;17.95;4.20;;;;;;;4.17;53.72;99755.41;1702071;82;25781;-65
2022/03/31 09:09:00;;;;;;;10.65;3.65;;;;;;;4.19;53.57;99744.28;1698471;82;98314;-63
2022/03/31 09:11:34;;;;;;;10.18;4.33;;;;;;;4.18;53.39;99743.88;1693010;82;29570;-64
2022/03/31 09:14:04;;;;;;;12.35;4.03;;;;;;;4.21;53.30;99741.59;1695365;82;98693;-63
2022/03/31 09:16:34;;;;;;;11.95;3.62;;;;;;;4.24;53.08;99734.39;1694261;82;26195;-64
2022/03/31 09:19:04;;;;;;;10.95;3.47;;;;;;;4.32;53.03;99733.28;1694271;82;26590;-63
2022/03/31 09:21:31;;;;;;;17.20;4.25;;;;;;;4.37;52.84;99745.94;1693354;82;98250;-63
2022/03/31 09:23:58;;;;;;;11.97;3.80;;;;;;;4.41;52.63;99743.14;1695331;82;27425;-64
2022/03/31 09:26:31;;;;;;;8.10;3.77;;;;;;;4.42;52.39;99731.61;1696310;82;97587;-64
2022/03/31 09:28:55;;;;;;;11.22;4.50;;;;;;;4.45;52.23;99731.50;1707469;82;28811;-63
2022/03/31 09:31:27;;;;;;;13.38;4.08;;;;;;;4.54;52.22;99725.89;1697204;82;98655;-64
2022/03/31 09:33:58;;;;;;;19.12;4.78;;;;;;;4.61;51.88;99727.88;1701665;82;25882;-64
2022/03/31 09:36:25;;;;;;;13.30;5.28;;;;;;;4.61;51.22;99719.92;1698633;82;29698;-64
2022/03/31 09:39:02;;;;;;;11.90;4.10;;;;;;;4.59;51.10;99727.06;1699082;82;98268;-64
2022/03/31 09:41:32;;;;;;;9.85;4.65;;;;;;;4.64;50.99;99725.13;1703583;82;25741;-64
2022/03/31 09:44:05;;;;;;;10.95;4.97;;;;;;;4.70;50.86;99731.55;1695613;82;97281;-63
2022/03/31 09:46:37;;;;;;;7.78;4.22;;;;;;;4.78;50.78;99716.23;1700643;82;25679;-63
2022/03/31 09:49:15;;;;;;;10.05;4.22;;;;;;;4.86;50.23;99714.17;1682281;83;28140;-63
2022/03/31 09:51:43;;;;;;;17.95;4.17;;;;;;;4.96;50.43;99716.51;1673832;83;98080;-64
2022/03/31 09:54:10;;;;;;;8.30;4.20;;;;;;;5.14;50.13;99722.03;1684034;83;25648;-64
2022/03/31 09:56:39;;;;;;;17.32;5.10;;;;;;;5.17;49.57;99705.98;1681701;83;97295;-64
2022/03/31 09:59:07;;;;;;;13.48;4.08;;;;;;;5.27;49.48;99718.90;1684765;83;25764;-64
2022/03/31 10:01:36;;;;;;;14.00;4.28;;;;;;;5.31;49.06;99713.88;1683514;83;98673;-63
2022/03/31 10:04:06;;;;;;;19.00;3.65;;;;;;;5.42;49.10;99717.01;1686331;83;26622;-63
2022/03/31 10:06:35;;;;;;;9.53;4.35;;;;;;;5.56;48.94;99717.36;1681570;83;25764;-63
2022/03/31 10:09:03;;;;;;;14.00;4.67;;;;;;;5.68;48.91;99713.37;1680489;83;97118;-65
2022/03/31 10:11:32;;;;;;;9.83;3.92;;;;;;;5.78;48.67;99715.62;1690950;83;26362;-64
2022/03/31 10:14:30;;;;;;;9.95;3.75;;;;;;;5.85;48.23;99714.45;1681979;83;98466;-65
2022/03/31 10:17:00;;;;;;;12.18;3.85;;;;;;;5.89;47.99;99720.55;1685804;83;25791;-65
2022/03/31 10:19:39;;;;;;;13.55;3.45;;;;;;;5.92;47.75;99714.25;1678405;83;98457;-63
2022/03/31 10:25:09;;;;;;;11.35;3.52;;;;;;;6.18;47.30;99710.09;1662477;84;25709;-67
2022/03/31 10:27:40;;;;;;;15.58;3.60;;;;;;;6.21;47.03;99711.76;1645370;84;98117;-62
2022/03/31 10:30:25;;;;;;;10.45;3.45;;;;;;;6.23;46.89;99704.58;1677267;83;25698;-64
2022/03/31 10:32:58;;;;;;;22.30;4.62;;;;;;;6.28;46.57;99707.45;1684255;83;98409;-63
2022/03/31 10:35:33;;;;;;;7.53;3.70;;;;;;;6.34;46.23;99710.33;1685094;83;26404;-63
2022/03/31 10:38:19;;;;;;;17.87;6.15;;;;;;;6.40;46.03;99721.59;1682278;83;98743;-63
2022/03/31 10:40:51;;;;;;;15.60;3.98;;;;;;;6.41;45.40;99706.48;1649932;84;28100;-63
2022/03/31 10:43:25;;;;;;;9.30;3.92;;;;;;;6.39;45.33;99707.88;1667285;84;99006;-64
2022/03/31 10:45:54;;;;;;;17.42;4.00;;;;;;;6.52;45.32;99698.92;1656301;83;25774;-62
2022/03/31 10:48:24;;;;;;;17.85;4.10;;;;;;;6.63;44.92;99702.47;1651719;84;26346;-64
2022/03/31 10:51:14;;;;;;;14.10;4.97;;;;;;;6.67;44.82;99695.62;1643011;84;98684;-63
2022/03/31 10:53:48;;;;;;;21.65;5.72;;;;;;;6.74;44.75;99695.75;1672649;83;27459;-65
2022/03/31 10:56:26;;;;;;;11.68;3.90;;;;;;;6.94;44.45;99694.03;1677858;83;98567;-63
2022/03/31 10:58:55;;;;;;;8.33;3.98;;;;;;;7.02;44.33;99699.89;1687847;83;25788;-62
2022/03/31 11:01:25;;;;;;;12.18;3.52;;;;;;;7.02;43.85;99701.22;1656551;84;98585;-63
2022/03/31 11:03:51;;;;;;;11.38;4.08;;;;;;;7.07;43.47;99696.09;1655881;83;26397;-63
2022/03/31 11:06:18;;;;;;;16.70;4.37;;;;;;;7.14;43.45;99683.36;1669843;83;27536;-63
2022/03/31 11:08:48;;;;;;;17.27;3.95;;;;;;;7.26;43.12;99684.14;1681225;83;98295;-63
2022/03/31 11:11:28;;;;;;;17.42;5.00;;;;;;;7.38;43.25;99688.05;1684897;83;33543;-63
2022/03/31 11:13:57;;;;;;;25.82;4.45;;;;;;;7.40;42.94;99688.84;1681865;83;98829;-62
2022/03/31 11:16:37;;;;;;;17.10;4.05;;;;;;;7.57;42.96;99677.41;1649066;84;25933;-63
2022/03/31 11:19:04;;;;;;;25.17;5.03;;;;;;;7.68;42.56;99681.30;1671176;83;28001;-62
2022/03/31 11:21:45;;;;;;;13.32;3.75;;;;;;;7.69;42.55;99670.16;1660558;84;98676;-63
2022/03/31 11:24:12;;;;;;;6.17;3.33;;;;;;;7.67;42.06;99674.70;1685109;83;26302;-62
2022/03/31 11:26:44;;;;;;;11.97;4.00;;;;;;;7.73;42.09;99671.75;1686078;83;98466;-64
2022/03/31 11:29:16;;;;;;;10.70;4.22;;;;;;;7.72;41.87;99667.36;1686940;83;25862;-64
2022/03/31 11:31:48;;;;;;;9.18;3.55;;;;;;;7.86;41.88;99675.53;1682925;83;98880;-62
2022/03/31 11:34:22;;;;;;;11.38;3.62;;;;;;;7.86;41.22;99663.53;1665333;84;27716;-66
2022/03/31 11:36:52;;;;;;;13.83;3.77;;;;;;;7.89;41.26;99650.52;1687968;83;25918;-63
2022/03/31 11:39:28;;;;;;;5.33;3.35;;;;;;;8.07;41.29;99657.16;1682053;83;98867;-61
2022/03/31 11:41:53;;;;;;;9.18;3.77;;;;;;;8.17;40.65;99652.70;1669778;84;26273;-63
2022/03/31 11:44:20;;;;;;;10.48;3.75;;;;;;;8.03;39.57;99646.23;1691666;83;98727;-63